Time;durP1;ratioP1;P1;durP2;ratioP2;P2;SDS_P1;SDS_P2;PMS_P1;PMS_P2;Temp;Humidity;BMP_temperature;BMP_pressure;BME280_temperature;BME280_humidity;BME280_pressure;Samples;Min_cycle;Max_cycle;Signal;HPM_P1;HPM_P2
2021/01/09 00:02:16;;;;;;;22.80;12.88;;;0.00;99.90;;;;;;5090832;28;20542;-69
2021/01/09 00:04:42;;;;;;;20.67;12.65;;;0.00;99.90;;;;;;5073611;28;20273;-68
2021/01/09 00:07:08;;;;;;;21.92;13.88;;;0.00;99.90;;;;;;5077364;28;20036;-69
2021/01/09 00:09:34;;;;;;;24.50;14.07;;;0.00;99.90;;;;;;5087348;28;20094;-68
2021/01/09 00:12:00;;;;;;;19.17;12.43;;;0.00;99.90;;;;;;5089963;28;20028;-68
2021/01/09 00:14:25;;;;;;;16.98;11.73;;;0.00;99.90;;;;;;5090359;28;20462;-68
2021/01/09 00:16:51;;;;;;;19.17;12.27;;;-0.10;99.90;;;;;;5091601;28;20077;-69
2021/01/09 00:19:17;;;;;;;25.25;12.63;;;0.00;99.90;;;;;;5090284;28;20016;-68
2021/01/09 00:21:42;;;;;;;22.85;12.45;;;-0.10;99.90;;;;;;5090778;28;20048;-69
2021/01/09 00:24:09;;;;;;;17.98;11.98;;;-0.10;99.90;;;;;;5090993;28;20467;-69
2021/01/09 00:26:36;;;;;;;22.58;13.55;;;-0.10;99.90;;;;;;5090239;28;20032;-70
2021/01/09 00:29:03;;;;;;;19.90;11.73;;;-0.20;99.90;;;;;;5092315;28;20047;-69
2021/01/09 00:31:28;;;;;;;21.17;12.40;;;-0.20;99.90;;;;;;5094904;28;20027;-69
2021/01/09 00:33:54;;;;;;;26.08;14.18;;;-0.20;99.90;;;;;;5094510;28;20099;-69
2021/01/09 00:36:20;;;;;;;24.50;14.30;;;-0.20;99.90;;;;;;5095174;28;20114;-70
2021/01/09 00:38:45;;;;;;;26.00;15.18;;;-0.20;99.90;;;;;;5094852;28;20043;-67
2021/01/09 00:41:11;;;;;;;29.95;14.98;;;-0.20;99.90;;;;;;5094666;28;20071;-69
2021/01/09 00:43:36;;;;;;;21.83;13.98;;;-0.20;99.90;;;;;;5094560;28;20111;-69
2021/01/09 00:46:03;;;;;;;20.80;13.57;;;-0.20;99.90;;;;;;5095030;28;20036;-69
2021/01/09 00:48:28;;;;;;;18.98;12.90;;;-0.20;99.90;;;;;;5094013;28;20069;-70
2021/01/09 00:50:54;;;;;;;22.13;13.20;;;-0.20;99.90;;;;;;5094809;28;20024;-69
2021/01/09 00:53:19;;;;;;;24.20;13.55;;;-0.20;99.90;;;;;;5094843;28;20031;-68
2021/01/09 00:55:45;;;;;;;23.60;14.25;;;-0.20;99.90;;;;;;5093868;28;20024;-69
2021/01/09 00:58:11;;;;;;;21.42;13.57;;;-0.20;99.90;;;;;;5094747;28;20024;-69
2021/01/09 01:00:36;;;;;;;21.33;13.68;;;-0.30;99.90;;;;;;5093518;28;20042;-69
2021/01/09 01:03:02;;;;;;;25.23;13.40;;;-0.30;99.90;;;;;;5089421;28;20113;-69
2021/01/09 01:05:28;;;;;;;26.17;15.05;;;-0.30;99.90;;;;;;5085365;28;20032;-69
2021/01/09 01:07:53;;;;;;;24.35;13.43;;;-0.30;99.90;;;;;;5094125;28;20306;-69
2021/01/09 01:10:19;;;;;;;21.48;13.93;;;-0.30;99.90;;;;;;5094119;28;20031;-68
2021/01/09 01:12:44;;;;;;;21.65;14.07;;;-0.30;99.90;;;;;;5094492;28;20020;-67
2021/01/09 01:15:10;;;;;;;25.35;14.30;;;-0.30;99.90;;;;;;5093928;28;20024;-68
2021/01/09 01:17:36;;;;;;;22.80;13.13;;;-0.30;99.90;;;;;;5094354;28;20122;-69
2021/01/09 01:20:02;;;;;;;21.65;13.65;;;-0.30;99.90;;;;;;5094154;28;20040;-69
2021/01/09 01:22:27;;;;;;;27.52;14.05;;;-0.30;99.90;;;;;;5093438;28;20024;-69
2021/01/09 01:24:53;;;;;;;22.00;12.80;;;-0.20;99.90;;;;;;5093977;28;20023;-69
2021/01/09 01:27:19;;;;;;;20.63;12.43;;;-0.30;99.90;;;;;;5093941;28;20020;-68
2021/01/09 01:29:44;;;;;;;21.23;12.68;;;-0.30;99.90;;;;;;5093169;28;20484;-68
2021/01/09 01:32:10;;;;;;;22.20;13.73;;;-0.30;99.90;;;;;;5094187;28;20027;-68
2021/01/09 01:34:35;;;;;;;20.58;12.55;;;-0.20;99.90;;;;;;5093622;28;20441;-69
2021/01/09 01:37:01;;;;;;;21.45;12.85;;;-0.30;99.90;;;;;;5092972;28;20073;-69
2021/01/09 01:39:26;;;;;;;24.13;12.35;;;-0.20;99.90;;;;;;5093926;28;20020;-70
2021/01/09 01:41:55;;;;;;;25.67;12.80;;;-0.30;99.90;;;;;;5093107;28;20039;-69
2021/01/09 01:44:20;;;;;;;20.52;11.75;;;-0.30;99.90;;;;;;5093449;28;20028;-68
2021/01/09 01:46:47;;;;;;;24.20;12.10;;;-0.30;99.90;;;;;;5093963;28;20031;-68
2021/01/09 01:49:13;;;;;;;19.45;11.63;;;-0.30;99.90;;;;;;5093963;28;20020;-68
2021/01/09 01:51:38;;;;;;;16.50;11.10;;;-0.30;99.90;;;;;;5093339;28;20039;-69
2021/01/09 01:54:04;;;;;;;18.45;11.85;;;-0.40;99.90;;;;;;5094006;28;20017;-68
2021/01/09 01:56:30;;;;;;;20.17;11.60;;;-0.40;99.90;;;;;;5093770;28;20405;-69
2021/01/09 01:58:55;;;;;;;23.58;13.02;;;-0.40;99.90;;;;;;5092882;28;20048;-69
2021/01/09 02:01:22;;;;;;;24.77;11.32;;;-0.40;99.90;;;;;;5093174;28;20070;-70
2021/01/09 02:03:48;;;;;;;21.95;11.93;;;-0.40;99.90;;;;;;5080844;28;20070;-69
2021/01/09 02:06:18;;;;;;;20.98;13.18;;;-0.30;99.90;;;;;;5090002;28;20414;-69
2021/01/09 02:08:50;;;;;;;27.33;12.85;;;-0.30;99.90;;;;;;5092873;28;20077;-69
2021/01/09 02:11:24;;;;;;;23.17;12.85;;;-0.20;99.90;;;;;;5092558;28;20044;-69
2021/01/09 02:13:55;;;;;;;24.83;11.98;;;-0.20;99.90;;;;;;5093611;28;20487;-69
2021/01/09 02:16:22;;;;;;;19.38;11.55;;;-0.10;99.90;;;;;;5091601;28;20040;-69
2021/01/09 02:18:49;;;;;;;17.67;11.60;;;-0.10;99.90;;;;;;5093024;28;20050;-69
2021/01/09 02:21:32;;;;;;;19.00;11.77;;;0.00;99.90;;;;;;5092925;28;20032;-68
2021/01/09 02:23:57;;;;;;;20.67;11.63;;;0.00;99.90;;;;;;5093445;28;20440;-68
2021/01/09 02:26:23;;;;;;;17.30;10.80;;;0.00;99.90;;;;;;5092129;28;20032;-68
2021/01/09 02:28:48;;;;;;;19.33;11.27;;;0.00;99.90;;;;;;5093044;28;20048;-69
2021/01/09 02:31:18;;;;;;;17.33;9.95;;;-0.10;99.90;;;;;;5093324;28;20088;-69
2021/01/09 02:33:44;;;;;;;21.15;11.25;;;-0.10;99.90;;;;;;5092695;28;20384;-68
2021/01/09 02:36:10;;;;;;;18.73;10.95;;;-0.20;99.90;;;;;;5093258;28;20024;-69
2021/01/09 02:38:36;;;;;;;18.65;10.63;;;-0.20;99.90;;;;;;5092612;28;20028;-68
2021/01/09 02:41:03;;;;;;;17.70;11.30;;;-0.20;99.90;;;;;;5092308;28;20065;-68
2021/01/09 02:43:28;;;;;;;21.05;10.85;;;-0.30;99.90;;;;;;5092630;28;20107;-68
2021/01/09 02:45:54;;;;;;;12.82;9.57;;;-0.30;99.90;;;;;;5093064;28;20186;-69
2021/01/09 02:48:19;;;;;;;16.50;10.32;;;-0.30;99.90;;;;;;5092085;28;20456;-69
2021/01/09 02:50:45;;;;;;;14.27;10.60;;;-0.30;99.90;;;;;;5093511;28;20452;-68
2021/01/09 02:53:10;;;;;;;19.60;10.82;;;-0.40;99.90;;;;;;5091071;28;20020;-68
2021/01/09 02:55:36;;;;;;;15.55;10.48;;;-0.40;99.90;;;;;;5092366;28;20039;-69
2021/01/09 02:58:01;;;;;;;17.42;11.43;;;-0.40;99.90;;;;;;5092633;28;20027;-69
2021/01/09 03:00:27;;;;;;;19.70;11.43;;;-0.40;99.90;;;;;;5091782;28;20126;-69
2021/01/09 03:02:52;;;;;;;24.33;12.45;;;-0.30;99.90;;;;;;5088597;28;20028;-69
2021/01/09 03:05:18;;;;;;;20.27;11.27;;;-0.40;99.90;;;;;;5082110;28;20024;-68
2021/01/09 03:07:43;;;;;;;20.75;11.80;;;-0.40;99.90;;;;;;5091705;28;20020;-69
2021/01/09 03:10:09;;;;;;;23.95;11.48;;;-0.30;99.90;;;;;;5092146;28;20391;-68
2021/01/09 03:12:35;;;;;;;17.48;11.18;;;-0.30;99.90;;;;;;5091945;28;20020;-69
2021/01/09 03:15:00;;;;;;;18.65;10.68;;;-0.30;99.90;;;;;;5085852;28;20017;-69
2021/01/09 03:17:26;;;;;;;20.23;10.85;;;-0.40;99.90;;;;;;5083571;28;20440;-68
2021/01/09 03:19:52;;;;;;;16.55;10.77;;;-0.30;99.90;;;;;;5092166;28;20035;-68
2021/01/09 03:22:17;;;;;;;20.58;12.20;;;-0.40;99.90;;;;;;5091511;28;20024;-68
2021/01/09 03:24:43;;;;;;;15.43;10.27;;;-0.50;99.90;;;;;;5092160;28;20084;-68
2021/01/09 03:27:08;;;;;;;16.98;10.30;;;-0.50;99.90;;;;;;5091910;28;20047;-68
2021/01/09 03:29:34;;;;;;;17.95;10.60;;;-0.50;99.90;;;;;;5091039;28;20557;-68
2021/01/09 03:31:59;;;;;;;17.02;11.10;;;-0.60;99.90;;;;;;5079471;28;20031;-68
2021/01/09 03:34:25;;;;;;;20.50;11.70;;;-0.60;99.90;;;;;;5071496;28;20023;-68
2021/01/09 03:36:50;;;;;;;15.63;10.40;;;-0.60;99.90;;;;;;5074600;28;20021;-68
2021/01/09 03:39:16;;;;;;;14.15;9.73;;;-0.60;99.90;;;;;;5089866;28;20030;-68
2021/01/09 03:41:41;;;;;;;20.10;12.27;;;-0.60;99.90;;;;;;5077427;28;20031;-68
2021/01/09 03:44:07;;;;;;;19.33;11.45;;;-0.60;99.90;;;;;;5091092;28;20031;-68
2021/01/09 03:46:33;;;;;;;17.08;9.57;;;-0.60;99.90;;;;;;5091417;28;20039;-69
2021/01/09 03:48:58;;;;;;;21.10;10.45;;;-0.60;99.90;;;;;;5084963;28;20021;-68
2021/01/09 03:51:24;;;;;;;19.70;10.13;;;-0.70;99.90;;;;;;5083527;28;20031;-69
2021/01/09 03:53:49;;;;;;;20.58;11.23;;;-0.70;99.90;;;;;;5091577;28;20095;-68
2021/01/09 03:56:15;;;;;;;15.35;10.02;;;-0.70;99.90;;;;;;5091295;28;20129;-68
2021/01/09 03:58:42;;;;;;;18.20;10.23;;;-0.70;99.90;;;;;;5091086;28;20027;-68
2021/01/09 04:01:07;;;;;;;18.13;9.75;;;-0.70;99.90;;;;;;5091770;28;20113;-68
2021/01/09 04:03:33;;;;;;;17.50;10.98;;;-0.70;99.90;;;;;;5090194;28;20032;-69
2021/01/09 04:05:58;;;;;;;15.73;9.80;;;-0.80;99.90;;;;;;5085420;28;20055;-68
2021/01/09 04:08:24;;;;;;;17.15;9.45;;;-0.80;99.90;;;;;;5083347;28;20055;-69
2021/01/09 04:10:49;;;;;;;17.75;10.68;;;-0.80;99.90;;;;;;5090705;28;20070;-69
2021/01/09 04:13:15;;;;;;;18.60;9.95;;;-0.80;99.90;;;;;;5091159;28;20016;-69
2021/01/09 04:15:40;;;;;;;16.15;9.63;;;-0.80;99.90;;;;;;5091462;28;20062;-69
2021/01/09 04:18:06;;;;;;;15.27;9.23;;;-0.80;99.90;;;;;;5090706;28;20032;-69
2021/01/09 04:20:31;;;;;;;18.20;9.88;;;-0.90;99.90;;;;;;5091272;28;20039;-69
2021/01/09 04:22:57;;;;;;;18.35;9.50;;;-0.90;99.90;;;;;;5091252;28;20456;-69
2021/01/09 04:25:23;;;;;;;15.60;9.52;;;-0.90;99.90;;;;;;5090793;28;20031;-68
2021/01/09 04:27:48;;;;;;;23.35;11.45;;;-0.90;99.90;;;;;;5091281;28;20027;-68
2021/01/09 04:30:14;;;;;;;16.63;10.60;;;-1.00;99.90;;;;;;5091010;28;20041;-68
2021/01/09 04:32:40;;;;;;;18.33;10.00;;;-0.90;99.90;;;;;;5090609;28;20031;-68
2021/01/09 04:35:06;;;;;;;16.52;10.68;;;-0.90;99.90;;;;;;5091353;28;20376;-68
2021/01/09 04:37:36;;;;;;;14.90;9.77;;;-0.90;99.90;;;;;;5090957;28;20646;-68
2021/01/09 04:40:06;;;;;;;15.85;9.50;;;-0.90;99.90;;;;;;5084848;28;20311;-69
2021/01/09 04:42:35;;;;;;;10.33;6.50;;;-0.90;99.90;;;;;;5083720;28;20041;-69
2021/01/09 04:45:01;;;;;;;15.60;9.45;;;-0.90;99.90;;;;;;5091182;28;20254;-69
2021/01/09 04:47:31;;;;;;;14.13;8.95;;;-1.00;99.90;;;;;;5090506;28;20124;-68
2021/01/09 04:49:57;;;;;;;15.00;8.63;;;-1.10;99.90;;;;;;5091344;28;20486;-69
2021/01/09 04:52:23;;;;;;;16.13;9.40;;;-1.10;99.90;;;;;;5090940;28;20032;-68
2021/01/09 04:54:50;;;;;;;14.55;9.30;;;-1.10;99.90;;;;;;5091122;28;20475;-69
2021/01/09 04:57:16;;;;;;;12.73;8.40;;;-1.10;99.90;;;;;;5091818;28;20092;-69
2021/01/09 04:59:42;;;;;;;15.90;9.50;;;-1.10;99.90;;;;;;5091308;28;20027;-68
2021/01/09 05:02:11;;;;;;;17.13;10.27;;;-1.00;99.90;;;;;;5091479;28;20115;-68
2021/01/09 05:04:42;;;;;;;59.13;10.55;;;-0.90;99.90;;;;;;5091118;28;20464;-69
2021/01/09 05:07:07;;;;;;;56.08;11.45;;;-0.90;99.90;;;;;;5090121;28;20028;-69
2021/01/09 05:09:33;;;;;;;82.45;11.20;;;-0.90;99.90;;;;;;5090831;28;20456;-68
2021/01/09 05:11:59;;;;;;;22.30;8.80;;;-0.80;99.90;;;;;;5091015;28;20484;-69
2021/01/09 05:14:27;;;;;;;11.60;7.50;;;-0.80;99.90;;;;;;5088848;28;20471;-68
2021/01/09 05:16:52;;;;;;;13.80;8.50;;;-0.80;99.90;;;;;;5092687;28;20514;-68
2021/01/09 05:19:18;;;;;;;14.88;8.00;;;-0.80;99.90;;;;;;5093563;28;20016;-69
2021/01/09 05:21:45;;;;;;;13.68;8.02;;;-0.80;99.90;;;;;;5092968;28;20036;-69
2021/01/09 05:24:13;;;;;;;14.02;7.85;;;-0.70;99.90;;;;;;5093753;28;20020;-69
2021/01/09 05:26:39;;;;;;;10.00;7.38;;;-0.80;99.90;;;;;;5094502;28;20035;-69
2021/01/09 05:29:07;;;;;;;12.35;7.90;;;-0.90;99.90;;;;;;5093722;28;20043;-68
2021/01/09 05:31:36;;;;;;;10.43;7.97;;;-0.80;99.90;;;;;;5094312;28;20028;-69
2021/01/09 05:34:02;;;;;;;12.60;7.43;;;-0.90;99.90;;;;;;5094298;28;20024;-69
2021/01/09 05:36:28;;;;;;;14.25;7.72;;;-0.90;99.90;;;;;;5093500;28;20391;-69
2021/01/09 05:38:53;;;;;;;16.58;8.05;;;-0.80;99.90;;;;;;5094289;28;20475;-69
2021/01/09 05:41:21;;;;;;;13.32;7.90;;;-0.90;99.90;;;;;;5079948;28;20056;-69
2021/01/09 05:44:19;;;;;;;13.35;8.25;;;-0.90;99.90;;;;;;5095411;28;20028;-68
2021/01/09 05:46:45;;;;;;;12.65;7.55;;;-0.90;99.90;;;;;;5058511;28;20028;-68
2021/01/09 05:49:11;;;;;;;12.32;8.45;;;-0.90;99.90;;;;;;5094995;28;20025;-69
2021/01/09 05:51:41;;;;;;;10.15;6.80;;;-0.90;99.90;;;;;;5098463;28;20131;-69
2021/01/09 05:54:07;;;;;;;11.43;7.45;;;-0.90;99.90;;;;;;5095683;28;20028;-69
2021/01/09 05:56:38;;;;;;;11.45;8.30;;;-1.00;99.90;;;;;;5094595;28;20035;-69
2021/01/09 05:59:04;;;;;;;14.98;7.38;;;-0.90;99.90;;;;;;5096161;28;20583;-68
2021/01/09 06:01:30;;;;;;;12.25;7.72;;;-0.90;99.90;;;;;;5095546;28;20068;-68
2021/01/09 06:04:03;;;;;;;11.65;6.82;;;-1.00;99.90;;;;;;5095396;28;20440;-71
2021/01/09 06:07:10;;;;;;;9.98;7.10;;;-0.90;99.90;;;;;;5093623;28;20084;-68
2021/01/09 06:09:46;;;;;;;12.25;7.75;;;-1.00;99.90;;;;;;5093110;28;20020;-68
2021/01/09 06:12:13;;;;;;;13.38;7.75;;;-1.00;99.90;;;;;;5093151;28;20055;-68
2021/01/09 06:14:43;;;;;;;11.73;8.32;;;-1.00;99.90;;;;;;5093825;28;20049;-68
2021/01/09 06:17:10;;;;;;;12.30;7.43;;;-1.00;99.90;;;;;;5093030;28;20043;-68
2021/01/09 06:19:37;;;;;;;12.40;8.32;;;-0.90;99.90;;;;;;5093211;28;20035;-68
2021/01/09 06:22:03;;;;;;;16.50;8.68;;;-0.90;99.90;;;;;;5078556;28;20037;-68
2021/01/09 06:24:29;;;;;;;22.65;7.60;;;-0.90;99.90;;;;;;5072018;28;20085;-69
2021/01/09 06:26:55;;;;;;;26.30;7.72;;;-0.90;99.90;;;;;;5072583;28;20039;-68
2021/01/09 06:29:23;;;;;;;39.13;7.78;;;-0.90;99.90;;;;;;5071925;28;20045;-69
2021/01/09 06:32:02;;;;;;;28.15;8.00;;;-1.00;99.90;;;;;;5074859;28;20025;-69
2021/01/09 06:34:30;;;;;;;16.33;7.57;;;-1.00;99.90;;;;;;5071638;28;20020;-68
2021/01/09 06:37:03;;;;;;;34.83;8.02;;;-1.00;99.90;;;;;;5072087;28;20755;-68
2021/01/09 06:39:37;;;;;;;10.93;7.13;;;-1.00;99.90;;;;;;5073029;28;20329;-68
2021/01/09 06:42:05;;;;;;;14.90;7.93;;;-1.00;99.90;;;;;;5072265;28;20047;-68
2021/01/09 06:44:31;;;;;;;13.98;7.57;;;-1.00;99.90;;;;;;5071982;28;20372;-68
2021/01/09 06:46:57;;;;;;;10.07;7.07;;;-1.00;99.90;;;;;;5070948;28;20032;-69
2021/01/09 06:49:25;;;;;;;9.23;6.68;;;-1.10;99.90;;;;;;5071391;28;20025;-68
2021/01/09 06:52:03;;;;;;;14.68;7.97;;;-1.00;99.90;;;;;;5072841;28;20461;-68
2021/01/09 06:54:38;;;;;;;15.25;8.32;;;-1.10;99.90;;;;;;5070850;28;20348;-68
2021/01/09 06:57:17;;;;;;;14.68;7.53;;;-1.10;99.90;;;;;;5071581;28;20031;-68
2021/01/09 06:59:45;;;;;;;10.52;7.65;;;-1.00;99.90;;;;;;5070580;28;20037;-68
2021/01/09 07:02:15;;;;;;;10.95;7.07;;;-1.00;99.90;;;;;;5071305;28;20036;-68
2021/01/09 07:04:55;;;;;;;9.57;6.40;;;-1.10;99.90;;;;;;5074273;28;20482;-68
2021/01/09 07:07:52;;;;;;;11.02;6.95;;;-1.00;99.90;;;;;;5072083;28;20161;-68
2021/01/09 07:10:22;;;;;;;11.60;7.57;;;-1.00;99.90;;;;;;5077748;28;20110;-68
2021/01/09 07:12:52;;;;;;;11.82;7.57;;;-1.00;99.90;;;;;;5089379;28;20047;-68
2021/01/09 07:15:19;;;;;;;14.20;7.00;;;-1.00;99.90;;;;;;5086987;28;20060;-68
2021/01/09 07:17:52;;;;;;;11.63;6.70;;;-1.00;99.90;;;;;;5090205;28;20020;-68
2021/01/09 07:20:20;;;;;;;9.20;5.95;;;-1.00;99.90;;;;;;5088528;28;20556;-68
2021/01/09 07:22:49;;;;;;;8.35;5.95;;;-1.00;99.90;;;;;;5089369;28;20043;-68
2021/01/09 07:25:40;;;;;;;13.98;7.03;;;-1.00;99.90;;;;;;5085708;28;20330;-68
2021/01/09 07:28:09;;;;;;;;;;;-1.10;99.90;;;;;;5086864;28;20399;-68
2021/01/09 07:30:35;;;;;;;10.70;5.87;;;-1.00;99.90;;;;;;5085621;28;19908;-68
2021/01/09 07:33:01;;;;;;;10.80;6.32;;;-1.00;99.90;;;;;;5089873;28;20100;-69
2021/01/09 07:35:31;;;;;;;11.52;6.82;;;-1.00;99.90;;;;;;5089177;28;20024;-68
2021/01/09 07:38:05;;;;;;;9.32;6.38;;;-1.00;99.90;;;;;;5085333;28;20020;-68
2021/01/09 07:40:52;;;;;;;9.88;6.28;;;-1.00;99.90;;;;;;5086721;28;20113;-69
2021/01/09 07:43:41;;;;;;;10.27;6.85;;;-1.00;99.90;;;;;;5087951;28;20387;-68
2021/01/09 07:46:27;;;;;;;10.00;5.88;;;-1.00;99.90;;;;;;5088083;28;20601;-69
2021/01/09 07:48:58;;;;;;;8.73;5.35;;;-1.00;99.90;;;;;;5086901;28;20031;-68
2021/01/09 07:51:47;;;;;;;14.27;6.35;;;-1.00;99.90;;;;;;5087658;28;20105;-68
2021/01/09 07:54:36;;;;;;;17.50;6.93;;;-1.00;99.90;;;;;;5084541;28;20020;-68
2021/01/09 07:57:03;;;;;;;14.73;6.68;;;-1.00;99.90;;;;;;5083615;28;20170;-68
2021/01/09 07:59:29;;;;;;;14.95;5.82;;;-0.90;99.90;;;;;;5081278;28;20122;-68
2021/01/09 08:01:54;;;;;;;9.75;6.15;;;-0.90;99.90;;;;;;5088614;28;20571;-68
2021/01/09 08:04:20;;;;;;;19.00;6.40;;;-0.90;99.90;;;;;;5086438;28;20020;-70
2021/01/09 08:06:45;;;;;;;10.75;6.22;;;-0.90;99.90;;;;;;5087704;28;20083;-69
2021/01/09 08:09:11;;;;;;;6.47;5.63;;;-0.80;99.90;;;;;;5090575;28;20024;-69
2021/01/09 08:11:46;;;;;;;14.65;7.22;;;-0.90;99.90;;;;;;5086778;28;20055;-69
2021/01/09 08:14:15;;;;;;;16.55;6.88;;;-0.90;99.90;;;;;;5086957;28;20397;-69
2021/01/09 08:16:41;;;;;;;9.27;5.85;;;-0.80;99.90;;;;;;5086037;28;20046;-69
2021/01/09 08:19:16;;;;;;;9.57;6.45;;;-0.70;99.90;;;;;;5088506;28;20070;-67
2021/01/09 08:21:52;;;;;;;10.35;6.35;;;-0.70;99.90;;;;;;5089072;28;20447;-69
2021/01/09 08:24:25;;;;;;;17.23;6.82;;;-0.60;99.90;;;;;;5088061;28;20028;-69
2021/01/09 08:26:52;;;;;;;11.77;6.32;;;-0.60;99.90;;;;;;5091220;28;20502;-69
2021/01/09 08:29:17;;;;;;;10.07;5.65;;;-0.50;99.90;;;;;;5085319;28;20058;-68
2021/01/09 08:31:43;;;;;;;8.88;6.55;;;-0.50;99.90;;;;;;5082045;28;20108;-68
2021/01/09 08:34:11;;;;;;;11.98;7.55;;;-0.50;99.90;;;;;;5071092;28;20488;-67
2021/01/09 08:36:41;;;;;;;13.25;6.13;;;-0.40;99.90;;;;;;5071207;28;20025;-67
2021/01/09 08:39:07;;;;;;;13.77;6.13;;;-0.30;99.90;;;;;;5070528;28;20481;-68
2021/01/09 08:41:37;;;;;;;11.85;6.68;;;-0.40;99.90;;;;;;5074687;28;20046;-68
2021/01/09 08:44:13;;;;;;;9.95;6.70;;;-0.30;99.90;;;;;;5091477;28;20149;-67
2021/01/09 08:46:41;;;;;;;11.23;6.80;;;-0.20;99.90;;;;;;5090765;28;20411;-68
2021/01/09 08:49:20;;;;;;;12.23;6.13;;;-0.20;99.90;;;;;;5090684;28;20423;-68
2021/01/09 08:51:49;;;;;;;16.58;7.25;;;-0.10;99.90;;;;;;5090810;28;20115;-69
2021/01/09 08:54:17;;;;;;;12.45;6.85;;;-0.10;99.90;;;;;;5094106;28;20032;-69
2021/01/09 08:56:44;;;;;;;9.80;5.63;;;0.00;99.90;;;;;;5076475;28;20096;-68
2021/01/09 08:59:09;;;;;;;10.68;6.38;;;0.00;99.90;;;;;;5082919;28;20053;-68
2021/01/09 09:01:47;;;;;;;7.30;5.82;;;0.10;99.90;;;;;;5095772;28;20067;-67
2021/01/09 09:04:13;;;;;;;11.43;6.07;;;0.20;99.90;;;;;;5094548;28;20031;-68
2021/01/09 09:06:42;;;;;;;13.13;5.90;;;0.20;99.90;;;;;;5093758;28;20040;-67
2021/01/09 09:09:09;;;;;;;13.40;5.78;;;0.20;99.90;;;;;;5094969;28;20059;-67
2021/01/09 09:11:35;;;;;;;12.13;5.60;;;0.20;99.90;;;;;;5094723;28;20032;-67
2021/01/09 09:14:07;;;;;;;12.13;5.82;;;0.30;99.90;;;;;;5093734;28;20024;-67
2021/01/09 09:16:37;;;;;;;12.50;6.10;;;0.40;99.90;;;;;;5096025;28;20131;-68
2021/01/09 09:19:13;;;;;;;8.60;5.65;;;0.50;99.90;;;;;;5088901;28;20085;-67
2021/01/09 09:21:43;;;;;;;13.20;6.35;;;0.60;99.90;;;;;;5088036;28;20046;-67
2021/01/09 09:24:10;;;;;;;6.85;5.30;;;0.60;99.90;;;;;;5084896;28;20021;-67
2021/01/09 09:26:36;;;;;;;5.97;4.95;;;0.80;99.90;;;;;;5081402;28;20353;-67
2021/01/09 09:29:02;;;;;;;10.48;5.45;;;0.80;99.90;;;;;;5087100;28;20066;-67
2021/01/09 09:31:32;;;;;;;13.07;6.00;;;1.00;99.90;;;;;;5085982;28;20099;-67
2021/01/09 09:34:03;;;;;;;7.70;6.00;;;1.10;99.90;;;;;;5087699;28;20810;-68
2021/01/09 09:36:30;;;;;;;8.57;5.47;;;1.30;99.90;;;;;;5088211;28;20071;-68
2021/01/09 09:38:56;;;;;;;15.85;6.63;;;1.40;99.90;;;;;;5089237;28;20048;-68
2021/01/09 09:41:22;;;;;;;15.68;5.32;;;1.50;99.90;;;;;;5087316;28;20102;-68
2021/01/09 09:44:00;;;;;;;16.40;5.63;;;1.60;99.90;;;;;;5085573;28;20024;-68
2021/01/09 09:46:26;;;;;;;8.52;4.72;;;1.70;99.90;;;;;;5085580;28;20024;-68
2021/01/09 09:48:58;;;;;;;10.20;6.03;;;1.80;99.90;;;;;;5082935;28;20119;-68
2021/01/09 09:51:34;;;;;;;10.70;5.75;;;1.90;99.90;;;;;;5083067;28;20067;-68
2021/01/09 09:54:00;;;;;;;7.38;4.35;;;1.90;99.90;;;;;;5071900;28;20029;-68
2021/01/09 09:56:25;;;;;;;9.15;4.28;;;2.00;99.90;;;;;;5070403;28;20698;-68
2021/01/09 09:59:06;;;;;;;16.65;6.20;;;2.00;99.90;;;;;;5071639;28;20036;-68
2021/01/09 10:01:33;;;;;;;7.82;4.60;;;2.10;99.90;;;;;;5084756;28;20119;-68
2021/01/09 10:04:00;;;;;;;10.35;5.22;;;2.10;99.90;;;;;;5070909;28;20027;-68
2021/01/09 10:06:36;;;;;;;6.90;4.93;;;2.10;99.90;;;;;;5071064;28;20480;-69
2021/01/09 10:09:10;;;;;;;8.32;4.13;;;2.10;99.90;;;;;;5071909;28;20017;-68
2021/01/09 10:11:35;;;;;;;9.60;4.85;;;2.10;99.90;;;;;;5073246;28;20020;-69
2021/01/09 10:14:04;;;;;;;12.68;5.90;;;2.10;99.90;;;;;;5073388;28;20029;-68
2021/01/09 10:16:30;;;;;;;9.63;4.55;;;2.10;99.90;;;;;;5077872;28;20020;-70
2021/01/09 10:18:55;;;;;;;7.13;4.97;;;2.00;99.90;;;;;;5073388;28;20021;-68
2021/01/09 10:21:26;;;;;;;8.68;5.28;;;2.00;99.90;;;;;;5073039;28;20021;-70
2021/01/09 10:23:52;;;;;;;;;;;1.90;99.90;;;;;;5078231;28;20021;-68
2021/01/09 10:26:24;;;;;;;10.55;5.22;;;1.90;99.90;;;;;;5074035;28;20531;-67
2021/01/09 10:28:50;;;;;;;9.85;5.38;;;2.00;99.90;;;;;;5075048;28;20045;-68
2021/01/09 10:31:15;;;;;;;13.48;5.70;;;2.10;99.90;;;;;;5071960;28;20070;-68
2021/01/09 10:33:41;;;;;;;10.43;5.72;;;2.10;99.90;;;;;;5073098;28;20055;-70
2021/01/09 10:36:06;;;;;;;10.30;6.20;;;2.10;99.90;;;;;;5072794;28;20481;-67
2021/01/09 10:38:32;;;;;;;12.48;5.90;;;2.20;99.90;;;;;;5071996;28;20113;-67
2021/01/09 10:40:57;;;;;;;7.55;5.63;;;2.10;99.90;;;;;;5085787;28;20480;-67
2021/01/09 10:43:23;;;;;;;8.30;5.82;;;2.30;99.90;;;;;;5092695;28;20020;-67
2021/01/09 10:45:48;;;;;;;17.00;5.68;;;2.30;99.90;;;;;;5092498;28;20027;-68
2021/01/09 10:48:14;;;;;;;8.68;4.80;;;2.40;99.90;;;;;;5092572;28;20023;-67
2021/01/09 10:50:39;;;;;;;13.75;5.97;;;2.40;99.90;;;;;;5092899;28;20476;-67
2021/01/09 10:53:05;;;;;;;11.05;5.47;;;2.50;99.90;;;;;;5091815;28;20130;-67
2021/01/09 10:55:30;;;;;;;10.30;5.85;;;2.60;99.90;;;;;;5092652;28;20020;-67
2021/01/09 10:57:56;;;;;;;10.07;6.80;;;2.60;99.90;;;;;;5090254;28;20020;-67
2021/01/09 11:00:22;;;;;;;17.73;7.10;;;2.70;99.90;;;;;;5080004;28;20036;-68
2021/01/09 11:02:47;;;;;;;12.05;6.22;;;2.80;99.90;;;;;;5092520;28;20027;-68
2021/01/09 11:05:13;;;;;;;13.93;6.68;;;2.90;99.90;;;;;;5091933;28;20547;-66
2021/01/09 11:07:38;;;;;;;12.65;6.82;;;2.90;99.90;;;;;;5091873;28;20027;-68
2021/01/09 11:10:05;;;;;;;15.50;5.82;;;3.00;99.90;;;;;;5092526;28;20038;-67
2021/01/09 11:12:31;;;;;;;9.45;6.45;;;3.00;99.90;;;;;;5091147;28;20420;-68
2021/01/09 11:14:56;;;;;;;6.88;5.03;;;3.10;99.90;;;;;;5091703;28;20127;-67
2021/01/09 11:17:22;;;;;;;6.97;3.90;;;3.20;99.90;;;;;;5092013;28;20023;-67
2021/01/09 11:19:47;;;;;;;9.25;4.32;;;3.30;99.90;;;;;;5091654;28;20059;-68
2021/01/09 11:22:13;;;;;;;9.15;3.78;;;3.40;99.90;;;;;;5091790;28;20134;-68
2021/01/09 11:24:39;;;;;;;6.75;3.78;;;3.50;99.90;;;;;;5092452;28;20024;-68
2021/01/09 11:27:05;;;;;;;11.55;4.25;;;3.60;99.90;;;;;;5091015;28;20035;-68
2021/01/09 11:29:31;;;;;;;9.85;4.28;;;3.60;99.90;;;;;;5091647;28;20059;-68
2021/01/09 11:32:01;;;;;;;12.13;4.18;;;3.70;99.90;;;;;;5092845;28;20379;-67
2021/01/09 11:34:27;;;;;;;5.63;3.77;;;3.80;99.90;;;;;;5093226;28;20106;-68
2021/01/09 11:36:53;;;;;;;9.50;4.20;;;3.90;99.90;;;;;;5092190;28;20092;-68
2021/01/09 11:39:18;;;;;;;8.48;4.30;;;4.00;99.90;;;;;;5091995;28;20024;-68
2021/01/09 11:41:44;;;;;;;10.65;5.50;;;4.10;99.90;;;;;;5076701;28;20448;-68
2021/01/09 11:44:10;;;;;;;9.00;3.00;;;4.10;99.90;;;;;;5091825;28;20024;-67
2021/01/09 11:46:35;;;;;;;7.65;2.53;;;4.20;99.90;;;;;;5091613;28;20035;-68
2021/01/09 11:49:01;;;;;;;4.47;2.10;;;4.30;99.90;;;;;;5091059;28;20016;-67
2021/01/09 11:51:26;;;;;;;8.00;2.60;;;4.40;99.90;;;;;;5091084;28;20024;-67
2021/01/09 11:53:52;;;;;;;9.95;2.13;;;4.40;99.90;;;;;;5083622;28;20028;-69
2021/01/09 11:56:24;;;;;;;4.97;2.10;;;4.40;99.90;;;;;;5072725;28;20121;-67
2021/01/09 11:58:50;;;;;;;9.60;2.60;;;4.50;99.90;;;;;;5081590;28;20099;-67
2021/01/09 12:01:15;;;;;;;5.80;2.63;;;4.50;99.90;;;;;;5080838;28;20495;-68
2021/01/09 12:03:41;;;;;;;5.78;2.22;;;4.50;99.90;;;;;;5079454;28;20020;-67
2021/01/09 12:06:07;;;;;;;9.75;2.70;;;4.60;99.90;;;;;;5081002;28;20020;-67
2021/01/09 12:08:32;;;;;;;8.25;2.28;;;4.70;99.90;;;;;;5082540;28;20024;-67
2021/01/09 12:10:58;;;;;;;8.23;2.55;;;4.80;99.90;;;;;;5081296;28;20102;-67
2021/01/09 12:13:24;;;;;;;6.18;2.25;;;4.90;99.90;;;;;;5079476;28;20031;-67
2021/01/09 12:15:49;;;;;;;9.88;1.75;;;5.10;99.90;;;;;;5079362;28;20048;-69
2021/01/09 12:18:19;;;;;;;4.90;1.40;;;5.30;99.90;;;;;;5080035;28;20016;-69
2021/01/09 12:20:47;;;;;;;8.57;1.13;;;5.30;99.90;;;;;;5080926;28;20471;-69
2021/01/09 12:23:12;;;;;;;3.70;1.63;;;5.40;99.90;;;;;;5070600;28;20047;-68
2021/01/09 12:25:38;;;;;;;4.00;1.90;;;5.40;99.90;;;;;;5075185;28;20476;-68
2021/01/09 12:28:04;;;;;;;7.50;1.35;;;5.50;99.90;;;;;;5077559;28;20473;-69
2021/01/09 12:30:29;;;;;;;5.32;0.98;;;5.40;99.90;;;;;;5076937;28;20055;-68
2021/01/09 12:32:55;;;;;;;10.15;1.20;;;5.30;99.90;;;;;;5077827;28;20549;-68
2021/01/09 12:35:20;;;;;;;4.10;1.00;;;5.20;99.90;;;;;;5079549;28;20025;-68
2021/01/09 12:37:46;;;;;;;3.55;1.33;;;5.20;99.90;;;;;;5078038;28;20036;-68
2021/01/09 12:40:12;;;;;;;1.70;0.82;;;5.10;99.90;;;;;;5077444;28;20071;-67
2021/01/09 12:42:37;;;;;;;7.03;1.50;;;5.00;99.90;;;;;;5090775;28;20027;-67
2021/01/09 12:45:04;;;;;;;14.52;1.35;;;5.10;99.90;;;;;;5097220;28;20036;-67